Saint Ignace, Michigan
Current Conditions -  °F | °C
As of 7:16 PM on Sunday 23 Nov 2014 (Local Time) from KMCD Reporting Station
Light Rain Light Rain  
Wind Chill: 42°   Ceiling: 400
Heat Index: 46°   Visibility: 3mi
Dew Point: 46°   Wind: 7mph
Humidity: 100%   Direction: 140°SE
Pressure: 29.51"   Gusts: NA
Location:  45.87°N, 84.73°W
Report Text: KMCD 240016Z AUTO 14006KT 3SM -RA OVC004 08/08 A2951 RMK AO2 T00780078
Loading
Personal Weather Stations






























Interactive Weather Map New forecast layout! Learn more

10-Day Weather Forecast

Advertisements
Track Severe Weather on mobile